sensor_id;sensor_type;location;lat;lon;timestamp;P1;durP1;ratioP1;P2;durP2;ratioP2
61248;SDS011;47119;49.130;9.218;2022-11-13T00:01:28;1.52;;;1.42;;
61248;SDS011;47119;49.130;9.218;2022-11-13T00:04:16;2.80;;;2.60;;
61248;SDS011;47119;49.130;9.218;2022-11-13T00:07:03;1.95;;;1.85;;
61248;SDS011;47119;49.130;9.218;2022-11-13T00:09:52;2.03;;;1.92;;
61248;SDS011;47119;49.130;9.218;2022-11-13T00:12:39;1.77;;;1.65;;
61248;SDS011;47119;49.130;9.218;2022-11-13T00:15:25;2.17;;;1.98;;
61248;SDS011;47119;49.130;9.218;2022-11-13T00:18:12;1.65;;;1.38;;
61248;SDS011;47119;49.130;9.218;2022-11-13T00:21:03;2.25;;;2.08;;
61248;SDS011;47119;49.130;9.218;2022-11-13T00:23:59;1.83;;;1.73;;
61248;SDS011;47119;49.130;9.218;2022-11-13T00:26:44;1.55;;;1.45;;
61248;SDS011;47119;49.130;9.218;2022-11-13T00:29:30;2.90;;;2.55;;
61248;SDS011;47119;49.130;9.218;2022-11-13T00:32:16;2.65;;;2.00;;
61248;SDS011;47119;49.130;9.218;2022-11-13T00:35:05;2.20;;;2.00;;
61248;SDS011;47119;49.130;9.218;2022-11-13T00:37:54;1.75;;;1.65;;
61248;SDS011;47119;49.130;9.218;2022-11-13T00:40:51;2.38;;;2.20;;
61248;SDS011;47119;49.130;9.218;2022-11-13T00:43:42;2.13;;;2.03;;
61248;SDS011;47119;49.130;9.218;2022-11-13T00:46:32;1.52;;;1.52;;
61248;SDS011;47119;49.130;9.218;2022-11-13T00:49:20;1.67;;;1.58;;
61248;SDS011;47119;49.130;9.218;2022-11-13T00:52:08;1.77;;;1.67;;
61248;SDS011;47119;49.130;9.218;2022-11-13T00:54:54;2.05;;;1.92;;
61248;SDS011;47119;49.130;9.218;2022-11-13T00:57:44;1.20;;;1.20;;
61248;SDS011;47119;49.130;9.218;2022-11-13T01:00:32;1.33;;;1.23;;
61248;SDS011;47119;49.130;9.218;2022-11-13T01:03:21;2.60;;;2.40;;
61248;SDS011;47119;49.130;9.218;2022-11-13T01:06:10;2.38;;;2.08;;
61248;SDS011;47119;49.130;9.218;2022-11-13T01:08:59;2.20;;;2.10;;
61248;SDS011;47119;49.130;9.218;2022-11-13T01:11:45;2.53;;;2.30;;
61248;SDS011;47119;49.130;9.218;2022-11-13T01:14:34;2.25;;;1.77;;
61248;SDS011;47119;49.130;9.218;2022-11-13T01:17:20;1.98;;;1.85;;
61248;SDS011;47119;49.130;9.218;2022-11-13T01:20:06;3.40;;;1.85;;
61248;SDS011;47119;49.130;9.218;2022-11-13T01:22:53;2.03;;;1.92;;
61248;SDS011;47119;49.130;9.218;2022-11-13T01:25:41;2.55;;;2.45;;
61248;SDS011;47119;49.130;9.218;2022-11-13T01:28:27;2.13;;;1.92;;
61248;SDS011;47119;49.130;9.218;2022-11-13T01:31:15;4.70;;;1.88;;
61248;SDS011;47119;49.130;9.218;2022-11-13T01:34:06;2.17;;;1.95;;
61248;SDS011;47119;49.130;9.218;2022-11-13T01:36:54;1.45;;;1.40;;
61248;SDS011;47119;49.130;9.218;2022-11-13T01:39:40;1.63;;;1.52;;
61248;SDS011;47119;49.130;9.218;2022-11-13T01:42:28;1.98;;;1.75;;
61248;SDS011;47119;49.130;9.218;2022-11-13T01:48:54;1.65;;;1.55;;
61248;SDS011;47119;49.130;9.218;2022-11-13T01:51:48;1.55;;;1.45;;
61248;SDS011;47119;49.130;9.218;2022-11-13T01:54:40;1.70;;;1.60;;
61248;SDS011;47119;49.130;9.218;2022-11-13T01:57:35;1.27;;;1.23;;
61248;SDS011;47119;49.130;9.218;2022-11-13T02:00:21;4.90;;;1.85;;
61248;SDS011;47119;49.130;9.218;2022-11-13T02:03:06;1.45;;;1.45;;
61248;SDS011;47119;49.130;9.218;2022-11-13T02:05:55;1.55;;;1.45;;
61248;SDS011;47119;49.130;9.218;2022-11-13T02:08:41;1.88;;;1.77;;
61248;SDS011;47119;49.130;9.218;2022-11-13T02:11:30;1.27;;;1.27;;
61248;SDS011;47119;49.130;9.218;2022-11-13T02:14:16;1.00;;;1.00;;
61248;SDS011;47119;49.130;9.218;2022-11-13T02:17:05;1.90;;;1.58;;
61248;SDS011;47119;49.130;9.218;2022-11-13T02:19:56;1.50;;;1.40;;
61248;SDS011;47119;49.130;9.218;2022-11-13T02:22:48;2.03;;;1.90;;
61248;SDS011;47119;49.130;9.218;2022-11-13T02:25:45;1.98;;;1.88;;
61248;SDS011;47119;49.130;9.218;2022-11-13T02:28:34;2.15;;;1.70;;
61248;SDS011;47119;49.130;9.218;2022-11-13T02:31:19;1.70;;;1.60;;
61248;SDS011;47119;49.130;9.218;2022-11-13T02:34:07;0.93;;;0.93;;
61248;SDS011;47119;49.130;9.218;2022-11-13T02:36:53;2.00;;;1.80;;
61248;SDS011;47119;49.130;9.218;2022-11-13T02:39:39;1.85;;;1.40;;
61248;SDS011;47119;49.130;9.218;2022-11-13T02:42:26;1.92;;;1.83;;
61248;SDS011;47119;49.130;9.218;2022-11-13T02:45:12;2.42;;;2.22;;
61248;SDS011;47119;49.130;9.218;2022-11-13T02:47:58;1.08;;;1.08;;
61248;SDS011;47119;49.130;9.218;2022-11-13T02:50:44;1.48;;;1.38;;
61248;SDS011;47119;49.130;9.218;2022-11-13T02:53:31;1.70;;;1.60;;
61248;SDS011;47119;49.130;9.218;2022-11-13T02:56:17;1.10;;;1.00;;
61248;SDS011;47119;49.130;9.218;2022-11-13T02:59:04;1.58;;;1.42;;
61248;SDS011;47119;49.130;9.218;2022-11-13T03:01:50;1.10;;;1.10;;
61248;SDS011;47119;49.130;9.218;2022-11-13T03:04:36;1.25;;;1.20;;
61248;SDS011;47119;49.130;9.218;2022-11-13T03:07:22;1.58;;;1.55;;
61248;SDS011;47119;49.130;9.218;2022-11-13T03:10:08;3.53;;;2.22;;
61248;SDS011;47119;49.130;9.218;2022-11-13T03:12:55;1.35;;;1.35;;
61248;SDS011;47119;49.130;9.218;2022-11-13T03:15:43;1.20;;;1.17;;
61248;SDS011;47119;49.130;9.218;2022-11-13T03:18:29;1.38;;;1.27;;
61248;SDS011;47119;49.130;9.218;2022-11-13T03:21:15;1.15;;;1.15;;
61248;SDS011;47119;49.130;9.218;2022-11-13T03:24:01;1.30;;;1.20;;
61248;SDS011;47119;49.130;9.218;2022-11-13T03:26:47;2.03;;;1.88;;
61248;SDS011;47119;49.130;9.218;2022-11-13T03:29:33;1.35;;;1.35;;
61248;SDS011;47119;49.130;9.218;2022-11-13T03:32:20;1.40;;;1.40;;
61248;SDS011;47119;49.130;9.218;2022-11-13T03:35:06;2.00;;;1.70;;
61248;SDS011;47119;49.130;9.218;2022-11-13T03:37:52;1.40;;;1.30;;
61248;SDS011;47119;49.130;9.218;2022-11-13T03:40:41;0.55;;;0.55;;
61248;SDS011;47119;49.130;9.218;2022-11-13T03:43:27;2.22;;;2.13;;
61248;SDS011;47119;49.130;9.218;2022-11-13T03:46:13;1.85;;;1.75;;
61248;SDS011;47119;49.130;9.218;2022-11-13T03:49:02;1.15;;;1.15;;
61248;SDS011;47119;49.130;9.218;2022-11-13T03:51:51;1.40;;;1.40;;
61248;SDS011;47119;49.130;9.218;2022-11-13T03:54:37;1.05;;;1.05;;
61248;SDS011;47119;49.130;9.218;2022-11-13T03:57:22;1.38;;;1.38;;
61248;SDS011;47119;49.130;9.218;2022-11-13T04:00:09;1.42;;;1.42;;
61248;SDS011;47119;49.130;9.218;2022-11-13T04:02:56;0.98;;;0.98;;
61248;SDS011;47119;49.130;9.218;2022-11-13T04:05:43;1.52;;;1.50;;
61248;SDS011;47119;49.130;9.218;2022-11-13T04:08:29;1.45;;;1.38;;
61248;SDS011;47119;49.130;9.218;2022-11-13T04:11:14;1.83;;;1.73;;
61248;SDS011;47119;49.130;9.218;2022-11-13T04:14:00;3.15;;;2.05;;
61248;SDS011;47119;49.130;9.218;2022-11-13T04:16:46;1.45;;;1.45;;
61248;SDS011;47119;49.130;9.218;2022-11-13T04:19:32;1.08;;;1.08;;
61248;SDS011;47119;49.130;9.218;2022-11-13T04:22:19;3.38;;;1.55;;
61248;SDS011;47119;49.130;9.218;2022-11-13T04:25:05;0.80;;;0.80;;
61248;SDS011;47119;49.130;9.218;2022-11-13T04:27:52;2.85;;;2.17;;
61248;SDS011;47119;49.130;9.218;2022-11-13T04:30:38;1.38;;;1.38;;
61248;SDS011;47119;49.130;9.218;2022-11-13T04:33:24;1.48;;;1.42;;
61248;SDS011;47119;49.130;9.218;2022-11-13T04:36:10;1.58;;;1.48;;
61248;SDS011;47119;49.130;9.218;2022-11-13T04:38:57;1.35;;;1.25;;
61248;SDS011;47119;49.130;9.218;2022-11-13T04:41:43;1.02;;;1.02;;
61248;SDS011;47119;49.130;9.218;2022-11-13T04:44:46;0.90;;;0.90;;
61248;SDS011;47119;49.130;9.218;2022-11-13T04:47:32;1.52;;;1.45;;
61248;SDS011;47119;49.130;9.218;2022-11-13T04:50:18;1.13;;;1.13;;
61248;SDS011;47119;49.130;9.218;2022-11-13T04:53:04;1.95;;;1.85;;
61248;SDS011;47119;49.130;9.218;2022-11-13T04:55:53;2.15;;;1.95;;
61248;SDS011;47119;49.130;9.218;2022-11-13T04:58:39;1.63;;;1.27;;
61248;SDS011;47119;49.130;9.218;2022-11-13T05:01:25;2.25;;;1.58;;
61248;SDS011;47119;49.130;9.218;2022-11-13T05:04:13;1.33;;;1.23;;
61248;SDS011;47119;49.130;9.218;2022-11-13T05:07:00;1.88;;;1.60;;
61248;SDS011;47119;49.130;9.218;2022-11-13T05:09:45;1.60;;;1.50;;
61248;SDS011;47119;49.130;9.218;2022-11-13T05:12:32;2.00;;;1.35;;
61248;SDS011;47119;49.130;9.218;2022-11-13T05:15:18;1.38;;;1.35;;
61248;SDS011;47119;49.130;9.218;2022-11-13T05:18:04;1.00;;;1.00;;
61248;SDS011;47119;49.130;9.218;2022-11-13T05:20:49;0.73;;;0.73;;
61248;SDS011;47119;49.130;9.218;2022-11-13T05:23:35;1.55;;;1.48;;
61248;SDS011;47119;49.130;9.218;2022-11-13T05:26:21;1.52;;;1.42;;
61248;SDS011;47119;49.130;9.218;2022-11-13T05:29:08;1.92;;;1.75;;
61248;SDS011;47119;49.130;9.218;2022-11-13T05:31:54;3.05;;;2.05;;
61248;SDS011;47119;49.130;9.218;2022-11-13T05:34:39;1.42;;;1.42;;
61248;SDS011;47119;49.130;9.218;2022-11-13T05:37:28;2.35;;;1.83;;
61248;SDS011;47119;49.130;9.218;2022-11-13T05:40:16;1.42;;;1.33;;
61248;SDS011;47119;49.130;9.218;2022-11-13T05:43:03;1.15;;;1.15;;
61248;SDS011;47119;49.130;9.218;2022-11-13T05:45:50;1.63;;;1.52;;
61248;SDS011;47119;49.130;9.218;2022-11-13T05:48:37;1.65;;;1.55;;
61248;SDS011;47119;49.130;9.218;2022-11-13T05:51:24;2.08;;;1.95;;
61248;SDS011;47119;49.130;9.218;2022-11-13T05:54:14;1.48;;;1.48;;
61248;SDS011;47119;49.130;9.218;2022-11-13T05:57:04;1.05;;;1.05;;
61248;SDS011;47119;49.130;9.218;2022-11-13T05:59:49;1.15;;;1.15;;
61248;SDS011;47119;49.130;9.218;2022-11-13T06:02:39;1.75;;;1.58;;
61248;SDS011;47119;49.130;9.218;2022-11-13T06:05:24;1.10;;;1.10;;
61248;SDS011;47119;49.130;9.218;2022-11-13T06:08:14;2.05;;;1.15;;
61248;SDS011;47119;49.130;9.218;2022-11-13T06:10:59;1.95;;;1.85;;
61248;SDS011;47119;49.130;9.218;2022-11-13T06:13:47;1.90;;;1.70;;
61248;SDS011;47119;49.130;9.218;2022-11-13T06:16:35;1.23;;;1.13;;
61248;SDS011;47119;49.130;9.218;2022-11-13T06:19:23;2.67;;;1.55;;
61248;SDS011;47119;49.130;9.218;2022-11-13T06:22:09;1.10;;;1.10;;
61248;SDS011;47119;49.130;9.218;2022-11-13T06:24:54;1.00;;;1.00;;
61248;SDS011;47119;49.130;9.218;2022-11-13T06:27:40;2.30;;;1.75;;
61248;SDS011;47119;49.130;9.218;2022-11-13T06:30:26;1.17;;;1.17;;
61248;SDS011;47119;49.130;9.218;2022-11-13T06:33:14;1.27;;;1.27;;
61248;SDS011;47119;49.130;9.218;2022-11-13T06:36:01;1.15;;;1.13;;
61248;SDS011;47119;49.130;9.218;2022-11-13T06:38:48;0.95;;;0.95;;
61248;SDS011;47119;49.130;9.218;2022-11-13T06:41:36;1.55;;;1.45;;
61248;SDS011;47119;49.130;9.218;2022-11-13T06:44:22;1.13;;;1.13;;
61248;SDS011;47119;49.130;9.218;2022-11-13T06:47:08;0.85;;;0.85;;
61248;SDS011;47119;49.130;9.218;2022-11-13T06:49:54;1.20;;;1.15;;
61248;SDS011;47119;49.130;9.218;2022-11-13T06:52:41;0.88;;;0.88;;
61248;SDS011;47119;49.130;9.218;2022-11-13T06:55:26;1.85;;;1.13;;
61248;SDS011;47119;49.130;9.218;2022-11-13T06:58:12;1.85;;;1.73;;
61248;SDS011;47119;49.130;9.218;2022-11-13T07:01:05;1.67;;;1.65;;
61248;SDS011;47119;49.130;9.218;2022-11-13T07:03:52;1.10;;;1.10;;
61248;SDS011;47119;49.130;9.218;2022-11-13T07:06:38;1.60;;;1.50;;
61248;SDS011;47119;49.130;9.218;2022-11-13T07:09:25;0.75;;;0.75;;
61248;SDS011;47119;49.130;9.218;2022-11-13T07:12:11;1.40;;;1.40;;
61248;SDS011;47119;49.130;9.218;2022-11-13T07:14:56;2.60;;;1.50;;
61248;SDS011;47119;49.130;9.218;2022-11-13T07:17:42;0.90;;;0.90;;
61248;SDS011;47119;49.130;9.218;2022-11-13T07:20:30;0.73;;;0.73;;
61248;SDS011;47119;49.130;9.218;2022-11-13T07:23:17;1.20;;;1.20;;
61248;SDS011;47119;49.130;9.218;2022-11-13T07:26:04;0.43;;;0.43;;
61248;SDS011;47119;49.130;9.218;2022-11-13T07:28:50;0.75;;;0.75;;
61248;SDS011;47119;49.130;9.218;2022-11-13T07:31:36;0.85;;;0.85;;
61248;SDS011;47119;49.130;9.218;2022-11-13T07:34:21;1.15;;;1.08;;
61248;SDS011;47119;49.130;9.218;2022-11-13T07:37:09;1.25;;;0.85;;
61248;SDS011;47119;49.130;9.218;2022-11-13T07:39:55;1.35;;;1.25;;
61248;SDS011;47119;49.130;9.218;2022-11-13T07:42:42;0.63;;;0.63;;
61248;SDS011;47119;49.130;9.218;2022-11-13T07:45:28;0.75;;;0.75;;
61248;SDS011;47119;49.130;9.218;2022-11-13T07:48:14;1.13;;;1.13;;
61248;SDS011;47119;49.130;9.218;2022-11-13T07:51:00;1.08;;;1.08;;
61248;SDS011;47119;49.130;9.218;2022-11-13T07:53:47;0.85;;;0.85;;
61248;SDS011;47119;49.130;9.218;2022-11-13T07:56:32;1.52;;;1.45;;
61248;SDS011;47119;49.130;9.218;2022-11-13T07:59:19;0.77;;;0.77;;
61248;SDS011;47119;49.130;9.218;2022-11-13T08:02:05;1.27;;;1.17;;
61248;SDS011;47119;49.130;9.218;2022-11-13T08:04:52;0.65;;;0.40;;
61248;SDS011;47119;49.130;9.218;2022-11-13T08:07:41;0.52;;;0.52;;
61248;SDS011;47119;49.130;9.218;2022-11-13T08:10:29;0.57;;;0.57;;
61248;SDS011;47119;49.130;9.218;2022-11-13T08:13:15;0.20;;;0.20;;
61248;SDS011;47119;49.130;9.218;2022-11-13T08:16:05;1.70;;;1.60;;
61248;SDS011;47119;49.130;9.218;2022-11-13T08:18:51;2.42;;;1.58;;
61248;SDS011;47119;49.130;9.218;2022-11-13T08:21:37;1.00;;;1.00;;
61248;SDS011;47119;49.130;9.218;2022-11-13T08:24:23;1.35;;;1.25;;
61248;SDS011;47119;49.130;9.218;2022-11-13T08:27:09;1.70;;;1.60;;
61248;SDS011;47119;49.130;9.218;2022-11-13T08:30:02;2.00;;;1.60;;
61248;SDS011;47119;49.130;9.218;2022-11-13T08:32:50;1.15;;;1.15;;
61248;SDS011;47119;49.130;9.218;2022-11-13T08:35:37;1.60;;;1.50;;
61248;SDS011;47119;49.130;9.218;2022-11-13T08:38:22;0.77;;;0.77;;
61248;SDS011;47119;49.130;9.218;2022-11-13T08:41:09;1.42;;;1.42;;
61248;SDS011;47119;49.130;9.218;2022-11-13T08:43:55;1.02;;;1.02;;
61248;SDS011;47119;49.130;9.218;2022-11-13T08:46:41;1.10;;;1.10;;
61248;SDS011;47119;49.130;9.218;2022-11-13T08:49:28;1.17;;;1.17;;
61248;SDS011;47119;49.130;9.218;2022-11-13T08:52:14;0.30;;;0.30;;
61248;SDS011;47119;49.130;9.218;2022-11-13T08:55:00;1.52;;;1.42;;
61248;SDS011;47119;49.130;9.218;2022-11-13T08:57:45;1.00;;;1.00;;
61248;SDS011;47119;49.130;9.218;2022-11-13T09:00:31;0.85;;;0.85;;
61248;SDS011;47119;49.130;9.218;2022-11-13T09:03:17;0.70;;;0.70;;
61248;SDS011;47119;49.130;9.218;2022-11-13T09:06:05;0.65;;;0.65;;
61248;SDS011;47119;49.130;9.218;2022-11-13T09:08:55;1.98;;;1.83;;
61248;SDS011;47119;49.130;9.218;2022-11-13T09:11:40;1.45;;;1.23;;
61248;SDS011;47119;49.130;9.218;2022-11-13T09:14:26;1.75;;;0.90;;
61248;SDS011;47119;49.130;9.218;2022-11-13T09:17:12;1.50;;;1.35;;
61248;SDS011;47119;49.130;9.218;2022-11-13T09:20:00;2.92;;;1.88;;
61248;SDS011;47119;49.130;9.218;2022-11-13T09:22:49;1.65;;;1.55;;
61248;SDS011;47119;49.130;9.218;2022-11-13T09:25:42;4.22;;;1.13;;
61248;SDS011;47119;49.130;9.218;2022-11-13T09:28:27;0.93;;;0.90;;
61248;SDS011;47119;49.130;9.218;2022-11-13T09:31:17;1.15;;;0.93;;
61248;SDS011;47119;49.130;9.218;2022-11-13T09:34:03;1.15;;;1.15;;
61248;SDS011;47119;49.130;9.218;2022-11-13T09:36:49;1.13;;;1.13;;
61248;SDS011;47119;49.130;9.218;2022-11-13T09:39:36;1.33;;;1.27;;
61248;SDS011;47119;49.130;9.218;2022-11-13T09:42:22;1.92;;;1.75;;
61248;SDS011;47119;49.130;9.218;2022-11-13T09:45:11;0.45;;;0.45;;
61248;SDS011;47119;49.130;9.218;2022-11-13T09:48:06;1.17;;;1.17;;
61248;SDS011;47119;49.130;9.218;2022-11-13T09:51:10;0.60;;;0.60;;
61248;SDS011;47119;49.130;9.218;2022-11-13T09:54:02;0.70;;;0.70;;
61248;SDS011;47119;49.130;9.218;2022-11-13T09:56:55;1.08;;;1.08;;
61248;SDS011;47119;49.130;9.218;2022-11-13T09:59:52;1.35;;;1.25;;
61248;SDS011;47119;49.130;9.218;2022-11-13T10:02:55;0.63;;;0.63;;
61248;SDS011;47119;49.130;9.218;2022-11-13T10:06:06;1.00;;;1.00;;
61248;SDS011;47119;49.130;9.218;2022-11-13T10:09:01;0.93;;;0.93;;
61248;SDS011;47119;49.130;9.218;2022-11-13T10:12:04;0.90;;;0.90;;
61248;SDS011;47119;49.130;9.218;2022-11-13T10:14:54;0.90;;;0.90;;
61248;SDS011;47119;49.130;9.218;2022-11-13T10:17:45;0.20;;;0.20;;
61248;SDS011;47119;49.130;9.218;2022-11-13T10:20:37;1.45;;;1.35;;
61248;SDS011;47119;49.130;9.218;2022-11-13T10:23:33;0.75;;;0.75;;
61248;SDS011;47119;49.130;9.218;2022-11-13T10:26:23;0.80;;;0.80;;
61248;SDS011;47119;49.130;9.218;2022-11-13T10:29:14;1.40;;;1.40;;
61248;SDS011;47119;49.130;9.218;2022-11-13T10:32:15;0.50;;;0.50;;
61248;SDS011;47119;49.130;9.218;2022-11-13T10:35:09;0.47;;;0.47;;
61248;SDS011;47119;49.130;9.218;2022-11-13T10:38:15;0.10;;;0.10;;
61248;SDS011;47119;49.130;9.218;2022-11-13T10:41:08;0.20;;;0.20;;
61248;SDS011;47119;49.130;9.218;2022-11-13T10:44:03;1.27;;;1.17;;
61248;SDS011;47119;49.130;9.218;2022-11-13T10:47:04;0.32;;;0.32;;
61248;SDS011;47119;49.130;9.218;2022-11-13T10:50:07;0.55;;;0.45;;
61248;SDS011;47119;49.130;9.218;2022-11-13T10:52:55;0.50;;;0.50;;
61248;SDS011;47119;49.130;9.218;2022-11-13T10:55:42;0.70;;;0.70;;
61248;SDS011;47119;49.130;9.218;2022-11-13T10:58:30;0.13;;;0.13;;
61248;SDS011;47119;49.130;9.218;2022-11-13T11:01:21;0.10;;;0.10;;
61248;SDS011;47119;49.130;9.218;2022-11-13T11:04:12;0.13;;;0.13;;
61248;SDS011;47119;49.130;9.218;2022-11-13T11:07:05;0.47;;;0.47;;
61248;SDS011;47119;49.130;9.218;2022-11-13T11:09:59;0.13;;;0.13;;
61248;SDS011;47119;49.130;9.218;2022-11-13T11:12:50;0.60;;;0.60;;
61248;SDS011;47119;49.130;9.218;2022-11-13T11:15:38;0.30;;;0.30;;
61248;SDS011;47119;49.130;9.218;2022-11-13T11:18:33;0.38;;;0.38;;
61248;SDS011;47119;49.130;9.218;2022-11-13T11:21:31;1.20;;;0.57;;
61248;SDS011;47119;49.130;9.218;2022-11-13T11:24:22;1.40;;;1.37;;
61248;SDS011;47119;49.130;9.218;2022-11-13T11:27:19;0.57;;;0.57;;
61248;SDS011;47119;49.130;9.218;2022-11-13T11:30:16;1.17;;;1.15;;
61248;SDS011;47119;49.130;9.218;2022-11-13T11:33:08;0.00;;;0.00;;
61248;SDS011;47119;49.130;9.218;2022-11-13T11:36:06;1.25;;;1.02;;
61248;SDS011;47119;49.130;9.218;2022-11-13T11:39:08;1.02;;;1.02;;
61248;SDS011;47119;49.130;9.218;2022-11-13T11:42:20;0.45;;;0.45;;
61248;SDS011;47119;49.130;9.218;2022-11-13T11:45:19;0.50;;;0.50;;
61248;SDS011;47119;49.130;9.218;2022-11-13T11:48:10;0.80;;;0.80;;
61248;SDS011;47119;49.130;9.218;2022-11-13T11:51:00;0.10;;;0.10;;
61248;SDS011;47119;49.130;9.218;2022-11-13T11:54:00;0.40;;;0.40;;
61248;SDS011;47119;49.130;9.218;2022-11-13T11:57:13;0.45;;;0.45;;
61248;SDS011;47119;49.130;9.218;2022-11-13T12:00:27;0.63;;;0.63;;
61248;SDS011;47119;49.130;9.218;2022-11-13T12:03:26;0.43;;;0.43;;
61248;SDS011;47119;49.130;9.218;2022-11-13T12:06:33;0.65;;;0.55;;
61248;SDS011;47119;49.130;9.218;2022-11-13T12:09:37;0.38;;;0.38;;
61248;SDS011;47119;49.130;9.218;2022-11-13T12:12:36;0.43;;;0.43;;
61248;SDS011;47119;49.130;9.218;2022-11-13T12:15:43;0.30;;;0.30;;
61248;SDS011;47119;49.130;9.218;2022-11-13T12:18:39;1.15;;;1.05;;
61248;SDS011;47119;49.130;9.218;2022-11-13T12:21:42;1.00;;;0.90;;
61248;SDS011;47119;49.130;9.218;2022-11-13T12:24:50;0.77;;;0.77;;
61248;SDS011;47119;49.130;9.218;2022-11-13T12:27:53;0.68;;;0.68;;
61248;SDS011;47119;49.130;9.218;2022-11-13T12:30:57;0.20;;;0.20;;
61248;SDS011;47119;49.130;9.218;2022-11-13T12:34:01;0.40;;;0.40;;
61248;SDS011;47119;49.130;9.218;2022-11-13T12:37:09;0.55;;;0.55;;
61248;SDS011;47119;49.130;9.218;2022-11-13T12:40:04;0.73;;;0.73;;
61248;SDS011;47119;49.130;9.218;2022-11-13T12:43:01;0.90;;;0.90;;
61248;SDS011;47119;49.130;9.218;2022-11-13T12:46:15;1.00;;;1.00;;
61248;SDS011;47119;49.130;9.218;2022-11-13T12:49:24;0.57;;;0.57;;
61248;SDS011;47119;49.130;9.218;2022-11-13T12:52:18;0.88;;;0.88;;
61248;SDS011;47119;49.130;9.218;2022-11-13T12:55:23;0.63;;;0.63;;
61248;SDS011;47119;49.130;9.218;2022-11-13T12:58:17;0.68;;;0.68;;
61248;SDS011;47119;49.130;9.218;2022-11-13T13:01:13;1.33;;;1.33;;
61248;SDS011;47119;49.130;9.218;2022-11-13T13:04:17;1.25;;;1.25;;
61248;SDS011;47119;49.130;9.218;2022-11-13T13:07:35;0.38;;;0.38;;
61248;SDS011;47119;49.130;9.218;2022-11-13T13:10:59;1.15;;;1.05;;
61248;SDS011;47119;49.130;9.218;2022-11-13T13:14:07;0.52;;;0.52;;
61248;SDS011;47119;49.130;9.218;2022-11-13T13:17:16;1.23;;;1.13;;
61248;SDS011;47119;49.130;9.218;2022-11-13T13:20:26;0.47;;;0.47;;
61248;SDS011;47119;49.130;9.218;2022-11-13T13:23:23;1.10;;;1.10;;
61248;SDS011;47119;49.130;9.218;2022-11-13T13:26:20;0.88;;;0.88;;
61248;SDS011;47119;49.130;9.218;2022-11-13T13:29:16;0.77;;;0.70;;
61248;SDS011;47119;49.130;9.218;2022-11-13T13:32:10;0.65;;;0.65;;
61248;SDS011;47119;49.130;9.218;2022-11-13T13:35:11;0.55;;;0.55;;
61248;SDS011;47119;49.130;9.218;2022-11-13T13:38:05;0.40;;;0.40;;
61248;SDS011;47119;49.130;9.218;2022-11-13T13:41:11;0.30;;;0.30;;
61248;SDS011;47119;49.130;9.218;2022-11-13T13:44:14;0.90;;;0.90;;
61248;SDS011;47119;49.130;9.218;2022-11-13T13:47:21;0.50;;;0.50;;
61248;SDS011;47119;49.130;9.218;2022-11-13T13:50:12;0.95;;;0.95;;
61248;SDS011;47119;49.130;9.218;2022-11-13T13:53:02;0.90;;;0.90;;
61248;SDS011;47119;49.130;9.218;2022-11-13T13:55:53;1.15;;;0.90;;
61248;SDS011;47119;49.130;9.218;2022-11-13T13:58:42;0.60;;;0.60;;
61248;SDS011;47119;49.130;9.218;2022-11-13T14:01:31;0.43;;;0.43;;
61248;SDS011;47119;49.130;9.218;2022-11-13T14:04:20;0.30;;;0.30;;
61248;SDS011;47119;49.130;9.218;2022-11-13T14:07:16;0.17;;;0.17;;
61248;SDS011;47119;49.130;9.218;2022-11-13T14:10:06;1.75;;;0.50;;
61248;SDS011;47119;49.130;9.218;2022-11-13T14:13:00;0.95;;;0.95;;
61248;SDS011;47119;49.130;9.218;2022-11-13T14:15:59;0.20;;;0.20;;
61248;SDS011;47119;49.130;9.218;2022-11-13T14:18:47;0.70;;;0.70;;
61248;SDS011;47119;49.130;9.218;2022-11-13T14:21:32;1.30;;;1.20;;
61248;SDS011;47119;49.130;9.218;2022-11-13T14:24:19;0.70;;;0.70;;
61248;SDS011;47119;49.130;9.218;2022-11-13T14:27:12;3.30;;;0.98;;
61248;SDS011;47119;49.130;9.218;2022-11-13T14:30:03;0.65;;;0.57;;
61248;SDS011;47119;49.130;9.218;2022-11-13T14:33:08;0.40;;;0.40;;
61248;SDS011;47119;49.130;9.218;2022-11-13T14:35:59;0.50;;;0.50;;
61248;SDS011;47119;49.130;9.218;2022-11-13T14:38:46;1.35;;;1.25;;
61248;SDS011;47119;49.130;9.218;2022-11-13T14:41:34;0.10;;;0.10;;
61248;SDS011;47119;49.130;9.218;2022-11-13T14:44:25;0.82;;;0.82;;
61248;SDS011;47119;49.130;9.218;2022-11-13T14:47:20;0.00;;;0.00;;
61248;SDS011;47119;49.130;9.218;2022-11-13T14:50:20;0.10;;;0.10;;
61248;SDS011;47119;49.130;9.218;2022-11-13T14:53:08;0.20;;;0.20;;
61248;SDS011;47119;49.130;9.218;2022-11-13T14:55:56;0.28;;;0.28;;
61248;SDS011;47119;49.130;9.218;2022-11-13T14:58:45;0.22;;;0.22;;
61248;SDS011;47119;49.130;9.218;2022-11-13T15:01:31;0.20;;;0.20;;
61248;SDS011;47119;49.130;9.218;2022-11-13T15:04:18;0.95;;;0.95;;
61248;SDS011;47119;49.130;9.218;2022-11-13T15:07:18;0.60;;;0.60;;
61248;SDS011;47119;49.130;9.218;2022-11-13T15:10:11;0.63;;;0.63;;
61248;SDS011;47119;49.130;9.218;2022-11-13T15:12:59;1.90;;;0.75;;
61248;SDS011;47119;49.130;9.218;2022-11-13T15:15:49;0.63;;;0.63;;
61248;SDS011;47119;49.130;9.218;2022-11-13T15:18:37;1.02;;;1.02;;
61248;SDS011;47119;49.130;9.218;2022-11-13T15:21:24;0.50;;;0.50;;
61248;SDS011;47119;49.130;9.218;2022-11-13T15:24:12;0.47;;;0.47;;
61248;SDS011;47119;49.130;9.218;2022-11-13T15:26:57;0.65;;;0.65;;
61248;SDS011;47119;49.130;9.218;2022-11-13T15:29:43;0.90;;;0.82;;
61248;SDS011;47119;49.130;9.218;2022-11-13T15:32:29;0.88;;;0.88;;
61248;SDS011;47119;49.130;9.218;2022-11-13T15:35:16;0.70;;;0.70;;
61248;SDS011;47119;49.130;9.218;2022-11-13T15:38:03;0.95;;;0.95;;
61248;SDS011;47119;49.130;9.218;2022-11-13T15:40:50;1.80;;;0.73;;
61248;SDS011;47119;49.130;9.218;2022-11-13T15:43:36;0.68;;;0.68;;
61248;SDS011;47119;49.130;9.218;2022-11-13T15:46:26;0.65;;;0.65;;
61248;SDS011;47119;49.130;9.218;2022-11-13T15:49:12;0.82;;;0.82;;
61248;SDS011;47119;49.130;9.218;2022-11-13T15:52:00;0.75;;;0.75;;
61248;SDS011;47119;49.130;9.218;2022-11-13T15:54:46;3.53;;;1.20;;
61248;SDS011;47119;49.130;9.218;2022-11-13T15:57:33;0.52;;;0.52;;
61248;SDS011;47119;49.130;9.218;2022-11-13T16:00:21;1.05;;;0.95;;
61248;SDS011;47119;49.130;9.218;2022-11-13T16:03:10;0.50;;;0.50;;
61248;SDS011;47119;49.130;9.218;2022-11-13T16:05:57;1.08;;;1.08;;
61248;SDS011;47119;49.130;9.218;2022-11-13T16:08:43;0.45;;;0.45;;
61248;SDS011;47119;49.130;9.218;2022-11-13T16:11:30;0.60;;;0.60;;
61248;SDS011;47119;49.130;9.218;2022-11-13T16:14:19;1.00;;;1.00;;
61248;SDS011;47119;49.130;9.218;2022-11-13T16:17:11;0.73;;;0.73;;
61248;SDS011;47119;49.130;9.218;2022-11-13T16:20:08;0.85;;;0.75;;
61248;SDS011;47119;49.130;9.218;2022-11-13T16:22:58;0.55;;;0.55;;
61248;SDS011;47119;49.130;9.218;2022-11-13T16:25:44;1.60;;;1.50;;
61248;SDS011;47119;49.130;9.218;2022-11-13T16:28:32;1.10;;;1.10;;
61248;SDS011;47119;49.130;9.218;2022-11-13T16:31:19;1.27;;;1.15;;
61248;SDS011;47119;49.130;9.218;2022-11-13T16:34:06;1.35;;;1.25;;
61248;SDS011;47119;49.130;9.218;2022-11-13T16:36:52;2.00;;;1.90;;
61248;SDS011;47119;49.130;9.218;2022-11-13T16:39:37;1.17;;;1.17;;
61248;SDS011;47119;49.130;9.218;2022-11-13T16:42:23;1.50;;;1.40;;
61248;SDS011;47119;49.130;9.218;2022-11-13T16:45:11;1.55;;;1.45;;
61248;SDS011;47119;49.130;9.218;2022-11-13T16:47:59;3.05;;;2.78;;
61248;SDS011;47119;49.130;9.218;2022-11-13T16:50:46;2.03;;;1.92;;
61248;SDS011;47119;49.130;9.218;2022-11-13T16:53:31;2.72;;;2.58;;
61248;SDS011;47119;49.130;9.218;2022-11-13T16:56:24;2.22;;;2.00;;
61248;SDS011;47119;49.130;9.218;2022-11-13T16:59:15;5.18;;;2.50;;
61248;SDS011;47119;49.130;9.218;2022-11-13T17:02:05;4.47;;;2.05;;
61248;SDS011;47119;49.130;9.218;2022-11-13T17:04:59;4.25;;;3.25;;
61248;SDS011;47119;49.130;9.218;2022-11-13T17:07:46;2.17;;;2.08;;
61248;SDS011;47119;49.130;9.218;2022-11-13T17:10:33;6.30;;;1.88;;